Time;durP1;ratioP1;P1;durP2;ratioP2;P2;SDS_P1;SDS_P2;PMS_P1;PMS_P2;Temp;Humidity;BMP_temperature;BMP_pressure;BME280_temperature;BME280_humidity;BME280_pressure;Samples;Min_cycle;Max_cycle;Signal;HPM_P1;HPM_P2
2022/09/25 00:01:32;;;;;;;16.85;8.15;;;14.50;99.90;;;14.61;100.00;100718.81;5205986;28;20506;-66
2022/09/25 00:04:04;;;;;;;17.40;8.40;;;14.50;99.90;;;14.60;100.00;100718.75;5205939;28;20064;-66
2022/09/25 00:06:36;;;;;;;20.13;9.48;;;14.40;99.90;;;14.59;100.00;100719.63;5205718;28;20056;-65
2022/09/25 00:09:13;;;;;;;17.85;8.20;;;14.40;99.90;;;14.57;100.00;100719.63;5205778;28;20104;-66
2022/09/25 00:11:45;;;;;;;21.30;10.25;;;14.40;99.90;;;14.58;100.00;100721.38;5205685;28;20140;-65
2022/09/25 00:14:17;;;;;;;21.60;10.27;;;14.40;99.90;;;14.57;100.00;100723.97;5205621;28;20045;-65
2022/09/25 00:16:49;;;;;;;16.98;8.85;;;14.40;99.90;;;14.57;100.00;100721.34;5218969;22;20046;-84
2022/09/25 00:22:11;;;;;;;19.45;9.02;;;14.40;99.90;;;14.57;100.00;100729.22;5183305;28;20389;-83
2022/09/25 00:24:45;;;;;;;21.45;9.45;;;14.40;99.90;;;14.56;100.00;100727.47;5170282;28;20050;-83
2022/09/25 00:27:18;;;;;;;18.65;8.70;;;14.40;99.90;;;14.54;100.00;100723.91;5180222;28;20041;-84
2022/09/25 00:29:50;;;;;;;16.65;8.73;;;14.40;99.90;;;14.54;100.00;100723.91;5186035;28;20508;-84
2022/09/25 00:32:22;;;;;;;18.45;8.85;;;14.40;99.90;;;14.54;100.00;100729.16;5186230;28;20050;-84
2022/09/25 00:34:54;;;;;;;22.95;10.40;;;14.40;99.90;;;14.52;100.00;100721.25;5188041;28;20053;-84
2022/09/25 00:37:26;;;;;;;20.60;9.10;;;14.40;99.90;;;14.49;100.00;100715.09;5186540;28;20049;-84
2022/09/25 00:40:00;;;;;;;21.70;10.20;;;14.40;99.90;;;14.48;100.00;100718.59;5187703;28;20462;-83
2022/09/25 00:42:32;;;;;;;20.83;9.18;;;14.40;99.90;;;14.47;100.00;100719.41;5187245;28;20056;-84
2022/09/25 00:45:06;;;;;;;23.15;10.68;;;14.30;99.90;;;14.44;100.00;100717.59;5186804;28;20500;-83
2022/09/25 00:47:51;;;;;;;20.73;9.95;;;14.30;99.90;;;14.42;100.00;100723.69;5186493;28;20065;-84
2022/09/25 00:50:32;;;;;;;19.42;9.27;;;14.30;99.90;;;14.41;100.00;100709.69;5187198;28;20046;-83
2022/09/25 00:53:10;;;;;;;19.60;9.05;;;14.30;99.90;;;14.40;100.00;100721.88;5185726;28;20081;-84
2022/09/25 00:55:45;;;;;;;18.42;8.80;;;14.30;99.90;;;14.38;100.00;100712.25;5186060;28;20049;-84
2022/09/25 00:58:22;;;;;;;19.92;9.07;;;14.30;99.90;;;14.40;100.00;100719.25;5185739;28;20052;-84
2022/09/25 01:00:55;;;;;;;21.08;9.35;;;14.30;99.90;;;14.39;100.00;100719.25;5185542;28;20042;-83
2022/09/25 01:03:27;;;;;;;20.75;10.05;;;14.30;99.90;;;14.39;100.00;100720.13;5187837;28;20045;-84
2022/09/25 01:06:00;;;;;;;17.55;8.68;;;14.30;99.90;;;14.38;100.00;100721.00;5202034;28;20046;-83
2022/09/25 01:08:34;;;;;;;19.42;9.15;;;14.30;99.90;;;14.37;100.00;100719.22;5185803;28;20046;-83
2022/09/25 01:11:08;;;;;;;22.35;10.02;;;14.20;99.90;;;14.37;100.00;100716.59;5186472;28;20419;-85
2022/09/25 01:13:40;;;;;;;18.60;8.65;;;14.20;99.90;;;14.38;100.00;100714.88;5187496;28;20510;-84
2022/09/25 01:16:22;;;;;;;20.27;9.30;;;14.20;99.90;;;14.37;100.00;100719.22;5186212;28;20081;-84
2022/09/25 01:19:12;;;;;;;17.73;8.68;;;14.20;99.90;;;14.35;100.00;100718.31;5187916;28;20076;-84
2022/09/25 01:21:53;;;;;;;20.80;9.48;;;14.20;99.90;;;14.37;100.00;100724.47;5188187;28;20050;-84
2022/09/25 01:24:58;;;;;;;17.70;8.02;;;14.20;99.90;;;14.36;100.00;100717.47;5187154;28;20463;-84
2022/09/25 01:28:06;;;;;;;18.70;8.65;;;14.20;99.90;;;14.37;100.00;100720.97;5185654;28;20045;-84
2022/09/25 01:30:44;;;;;;;15.10;7.95;;;14.20;99.90;;;14.38;100.00;100721.00;5187792;28;20405;-84
2022/09/25 01:33:23;;;;;;;19.80;8.55;;;14.30;99.90;;;14.38;100.00;100718.38;5192756;28;20050;-84
2022/09/25 01:36:01;;;;;;;15.90;7.80;;;14.20;99.90;;;14.38;100.00;100718.38;5192374;28;20054;-81
2022/09/25 01:38:39;;;;;;;16.73;7.95;;;14.20;99.90;;;14.38;100.00;100721.00;5194524;28;20084;-84
2022/09/25 01:41:20;;;;;;;16.70;8.60;;;14.20;99.90;;;14.38;100.00;100727.97;5191275;28;20412;-84
2022/09/25 01:43:58;;;;;;;16.42;7.97;;;14.20;99.90;;;14.38;100.00;100723.59;5190942;28;20049;-84
2022/09/25 01:46:36;;;;;;;16.73;8.20;;;14.30;99.90;;;14.39;100.00;100720.13;5189283;28;20079;-84
2022/09/25 01:49:16;;;;;;;18.30;8.18;;;14.20;99.90;;;14.39;100.00;100730.63;5189441;28;20105;-84
2022/09/25 01:51:52;;;;;;;19.30;9.40;;;14.20;99.90;;;14.38;100.00;100721.00;5190408;28;20050;-84
2022/09/25 01:54:30;;;;;;;20.80;9.25;;;14.30;99.90;;;14.38;100.00;100727.97;5190626;28;20042;-84
2022/09/25 01:57:08;;;;;;;20.15;9.40;;;14.20;99.90;;;14.37;100.00;100720.97;5188937;28;20073;-84
2022/09/25 01:59:47;;;;;;;22.52;10.05;;;14.20;99.90;;;14.36;100.00;100729.69;5190648;28;20485;-83
2022/09/25 02:02:26;;;;;;;21.30;9.50;;;14.20;99.90;;;14.35;100.00;100728.81;5188823;28;20049;-84
2022/09/25 02:05:03;;;;;;;20.23;9.50;;;14.20;99.90;;;14.34;100.00;100732.28;5189565;28;20046;-84
2022/09/25 02:07:40;;;;;;;20.55;9.05;;;14.20;99.90;;;14.34;100.00;100724.44;5189800;28;20539;-84
2022/09/25 02:10:18;;;;;;;19.13;8.93;;;14.20;99.90;;;14.34;100.00;100727.06;5188771;28;20046;-84
2022/09/25 02:12:55;;;;;;;16.52;7.70;;;14.20;99.90;;;14.35;100.00;100722.69;5189328;28;20053;-83
2022/09/25 02:15:32;;;;;;;21.33;9.27;;;14.20;99.90;;;14.35;100.00;100723.56;5189993;28;20046;-84
2022/09/25 02:21:13;;;;;;;20.27;8.73;;;14.20;99.90;;;14.36;100.00;100720.09;5190422;28;20124;-83
2022/09/25 02:23:53;;;;;;;19.30;8.60;;;14.20;99.90;;;14.37;100.00;100723.59;5190202;28;20042;-84
2022/09/25 02:26:28;;;;;;;17.58;8.45;;;14.30;99.90;;;14.37;100.00;100727.09;5190838;28;20489;-84
2022/09/25 02:29:01;;;;;;;17.77;8.35;;;14.20;99.90;;;14.36;100.00;100725.34;5188441;28;20475;-84
2022/09/25 02:31:37;;;;;;;22.23;10.00;;;14.20;99.90;;;14.35;100.00;100717.44;5189393;28;20046;-84
2022/09/25 02:34:12;;;;;;;19.92;9.68;;;14.20;99.90;;;14.34;100.00;100732.28;5204842;28;20397;-84
2022/09/25 02:36:44;;;;;;;20.08;8.70;;;14.20;99.90;;;14.32;100.00;100728.75;5190401;28;20038;-84
2022/09/25 02:39:20;;;;;;;19.27;8.73;;;14.20;99.90;;;14.33;100.00;100733.13;5191739;28;20122;-83
2022/09/25 02:42:15;;;;;;;21.10;9.27;;;14.20;99.90;;;14.32;100.00;100728.75;5188973;28;20050;-84
2022/09/25 02:45:07;;;;;;;19.30;8.82;;;14.20;99.90;;;14.33;100.00;100727.00;5187909;28;20053;-84
2022/09/25 02:47:50;;;;;;;18.23;8.23;;;14.20;99.90;;;14.33;100.00;100730.50;5188215;28;20080;-84
2022/09/25 02:50:28;;;;;;;18.23;8.98;;;14.20;99.90;;;14.32;100.00;100728.75;5187638;28;20049;-83
2022/09/25 02:53:06;;;;;;;18.10;8.57;;;14.20;99.90;;;14.32;100.00;100728.75;5188838;28;20046;-83
2022/09/25 02:55:44;;;;;;;20.85;9.45;;;14.20;99.90;;;14.31;100.00;100726.97;5188044;28;20173;-84
2022/09/25 02:58:21;;;;;;;18.92;9.02;;;14.20;99.90;;;14.29;100.00;100728.69;5189253;28;20044;-83
2022/09/25 03:00:57;;;;;;;20.42;9.27;;;14.10;99.90;;;14.31;100.00;100728.72;5188885;28;20081;-84
2022/09/25 03:03:31;;;;;;;19.63;9.13;;;14.10;99.90;;;14.31;100.00;100726.09;5187220;28;20050;-84
2022/09/25 03:06:07;;;;;;;21.10;9.32;;;14.20;99.90;;;14.31;100.00;100726.09;5187487;28;20088;-84
2022/09/25 03:08:45;;;;;;;21.30;9.80;;;14.20;99.90;;;14.28;100.00;100721.69;5188719;28;20049;-84
2022/09/25 03:11:20;;;;;;;18.55;8.95;;;14.10;99.90;;;14.29;100.00;100726.06;5187374;28;20140;-84
2022/09/25 03:13:56;;;;;;;;;;;14.10;99.90;;;14.30;100.00;100729.56;5187536;28;20057;-84
2022/09/25 03:16:37;;;;;;;18.27;7.70;;;14.10;99.90;;;14.30;100.00;100730.47;5187237;28;19928;-84
2022/09/25 03:19:09;;;;;;;18.63;8.82;;;14.10;99.90;;;14.31;100.00;100732.22;5187230;28;20054;-84
2022/09/25 03:21:42;;;;;;;20.20;9.15;;;14.20;99.90;;;14.30;100.00;100729.56;5187528;28;20472;-84
2022/09/25 03:24:15;;;;;;;21.05;9.40;;;14.10;99.90;;;14.28;100.00;100724.31;5187145;28;20435;-83
2022/09/25 03:26:47;;;;;;;20.95;9.60;;;14.20;99.90;;;14.28;100.00;100726.94;5187620;28;20050;-84
2022/09/25 03:29:20;;;;;;;21.08;9.13;;;14.10;99.90;;;14.28;100.00;100726.94;5187121;28;20046;-83
2022/09/25 03:31:52;;;;;;;19.40;9.50;;;14.10;99.90;;;14.28;100.00;100721.69;5188933;28;20129;-84
2022/09/25 03:34:24;;;;;;;18.73;9.23;;;14.10;99.90;;;14.28;100.00;100721.69;5187148;28;20096;-84
2022/09/25 03:36:57;;;;;;;21.63;9.38;;;14.10;99.90;;;14.30;100.00;100726.97;5188245;28;20512;-84
2022/09/25 03:39:29;;;;;;;20.77;9.32;;;14.10;99.90;;;14.29;100.00;100723.47;5187698;28;20451;-84
2022/09/25 03:42:01;;;;;;;18.13;8.43;;;14.10;99.90;;;14.29;100.00;100728.69;5187428;28;20054;-84
2022/09/25 03:44:33;;;;;;;20.83;8.90;;;14.10;99.90;;;14.29;100.00;100723.47;5186795;28;20120;-83
2022/09/25 03:47:05;;;;;;;22.20;10.30;;;14.20;99.90;;;14.29;100.00;100723.47;5186256;28;20042;-84
2022/09/25 03:49:37;;;;;;;17.75;8.70;;;14.20;99.90;;;14.28;100.00;100726.94;5203047;28;20069;-83
2022/09/25 03:52:11;;;;;;;21.33;9.50;;;14.10;99.90;;;14.27;100.00;100725.13;5187051;28;20560;-84
2022/09/25 03:54:43;;;;;;;21.23;9.20;;;14.10;99.90;;;14.26;100.00;100727.75;5186143;28;20053;-84
2022/09/25 03:57:15;;;;;;;23.58;9.52;;;14.10;99.90;;;14.25;100.00;100729.47;5186971;28;20492;-84
2022/09/25 03:59:47;;;;;;;19.30;9.32;;;14.10;99.90;;;14.23;100.00;100728.59;5187872;28;20463;-84
2022/09/25 04:02:19;;;;;;;20.55;8.93;;;14.10;99.90;;;14.21;100.00;100729.38;5186794;28;20054;-84
2022/09/25 04:04:53;;;;;;;20.13;9.57;;;14.10;99.90;;;14.20;100.00;100727.63;5186294;28;20061;-84
2022/09/25 04:07:27;;;;;;;18.23;8.68;;;14.10;99.90;;;14.18;100.00;100724.09;5186484;28;20042;-84
2022/09/25 04:09:59;;;;;;;16.80;8.18;;;14.00;99.90;;;14.15;100.00;100730.19;5186119;28;20536;-84
2022/09/25 04:12:31;;;;;;;16.38;7.38;;;14.00;99.90;;;14.15;100.00;100731.88;5187519;28;20052;-84
2022/09/25 04:15:05;;;;;;;15.18;6.88;;;14.00;99.90;;;14.12;100.00;100728.38;5187785;28;20069;-84
2022/09/25 04:17:37;;;;;;;14.80;7.22;;;14.00;99.90;;;14.12;100.00;100736.22;5186220;28;20108;-84
2022/09/25 04:20:10;;;;;;;14.25;6.30;;;14.00;99.90;;;14.12;100.00;100730.09;5186439;28;20054;-84
2022/09/25 04:22:43;;;;;;;14.90;6.82;;;14.00;99.90;;;14.10;100.00;100731.81;5186259;28;20046;-84
2022/09/25 04:25:15;;;;;;;13.13;6.63;;;14.00;99.90;;;14.10;100.00;100731.81;5186758;28;20053;-83
2022/09/25 04:27:48;;;;;;;11.57;5.78;;;13.90;99.90;;;14.10;100.00;100737.94;5186187;28;20504;-84
2022/09/25 04:30:20;;;;;;;13.70;6.57;;;14.00;99.90;;;14.08;100.00;100733.50;5186149;28;20088;-83
2022/09/25 04:35:42;;;;;;;14.77;7.03;;;13.90;99.90;;;14.06;100.00;100732.59;5187637;28;20038;-84
2022/09/25 04:38:16;;;;;;;14.85;7.05;;;13.90;99.90;;;14.05;100.00;100738.72;5186449;28;20543;-83
2022/09/25 04:40:48;;;;;;;12.48;6.05;;;13.90;99.90;;;14.08;100.00;100739.66;5187591;28;20128;-83
2022/09/25 04:43:21;;;;;;;13.13;6.57;;;13.90;99.90;;;14.07;100.00;100742.22;5186055;28;20056;-83
2022/09/25 04:45:53;;;;;;;12.77;6.53;;;13.90;99.90;;;14.07;100.00;100737.00;5187242;28;20424;-84
2022/09/25 04:48:25;;;;;;;12.05;6.28;;;13.90;99.90;;;14.08;100.00;100738.75;5187010;28;20046;-84
2022/09/25 04:50:58;;;;;;;12.55;6.60;;;13.90;99.90;;;14.07;100.00;100743.13;5185756;28;20050;-84
2022/09/25 04:53:34;;;;;;;13.02;6.93;;;13.90;99.90;;;14.04;100.00;100748.31;5186578;28;20053;-84
2022/09/25 04:56:08;;;;;;;11.05;5.30;;;13.90;99.90;;;14.02;100.00;100750.03;5185735;28;20046;-84
2022/09/25 04:58:45;;;;;;;15.15;6.70;;;13.90;99.90;;;13.99;100.00;100744.72;5186110;28;20049;-84
2022/09/25 05:01:20;;;;;;;12.73;6.40;;;13.90;99.90;;;14.01;100.00;100744.72;5186013;28;20050;-83
2022/09/25 05:03:52;;;;;;;;;;;13.90;99.90;;;13.99;100.00;100743.81;5186312;28;20065;-84
2022/09/25 05:06:25;;;;;;;14.38;6.30;;;13.90;99.90;;;13.98;100.00;100739.44;5186092;28;19944;-84
2022/09/25 05:08:59;;;;;;;12.15;5.78;;;13.80;99.90;;;13.98;100.00;100744.69;5185352;28;20108;-83
2022/09/25 05:11:31;;;;;;;11.15;5.68;;;13.90;99.90;;;13.94;100.00;100748.06;5187079;28;20046;-84
2022/09/25 05:14:03;;;;;;;9.82;5.20;;;13.90;99.90;;;13.94;100.00;100750.69;5185729;28;20042;-84
2022/09/25 05:16:35;;;;;;;11.45;5.72;;;13.80;99.90;;;13.92;100.00;100749.78;5185624;28;20053;-84
2022/09/25 05:19:07;;;;;;;11.70;5.18;;;13.80;99.90;;;13.91;100.00;100748.91;5186910;28;20583;-83
2022/09/25 05:21:39;;;;;;;12.38;4.97;;;13.80;99.90;;;13.89;100.00;100744.47;5185441;28;20042;-83
2022/09/25 05:24:13;;;;;;;9.93;4.55;;;13.80;99.90;;;13.89;100.00;100747.09;5186838;28;20523;-84
2022/09/25 05:26:47;;;;;;;9.63;4.70;;;13.80;99.90;;;13.87;100.00;100740.94;5185625;28;20054;-83
2022/09/25 05:29:19;;;;;;;10.35;4.50;;;13.80;99.90;;;13.87;100.00;100752.31;5185342;28;20050;-84
2022/09/25 05:31:51;;;;;;;8.75;4.07;;;13.70;99.90;;;13.86;100.00;100747.94;5185491;28;20535;-84
2022/09/25 05:34:23;;;;;;;9.32;4.68;;;13.80;99.90;;;13.89;100.00;100750.63;5186718;28;20042;-84
2022/09/25 05:36:55;;;;;;;7.22;3.40;;;13.80;99.90;;;13.88;100.00;100761.06;5185446;28;20050;-84
2022/09/25 05:39:28;;;;;;;6.72;3.88;;;13.70;99.90;;;13.88;100.00;100755.81;5186872;28;20056;-84
2022/09/25 05:42:01;;;;;;;9.98;4.10;;;13.70;99.90;;;13.87;100.00;100767.16;5184884;28;20054;-84
2022/09/25 05:44:33;;;;;;;7.07;3.60;;;13.80;99.90;;;13.85;100.00;100752.28;5184959;28;20053;-84
2022/09/25 05:47:06;;;;;;;6.80;3.60;;;13.70;99.90;;;13.84;100.00;100760.13;5185824;28;20050;-81
2022/09/25 05:49:38;;;;;;;7.93;3.38;;;13.80;99.90;;;13.83;100.00;100754.00;5185754;28;20045;-84
2022/09/25 05:52:10;;;;;;;7.72;4.13;;;13.80;99.90;;;13.83;100.00;100759.25;5185366;28;20050;-84
2022/09/25 05:54:43;;;;;;;7.72;3.70;;;13.70;99.90;;;13.84;100.00;100753.16;5185907;28;20061;-84
2022/09/25 05:57:16;;;;;;;8.57;3.42;;;13.80;99.90;;;13.84;100.00;100761.00;5186355;28;20046;-84
2022/09/25 05:59:48;;;;;;;10.32;4.10;;;13.70;99.90;;;13.83;100.00;100756.63;5185698;28;20077;-84
2022/09/25 06:02:20;;;;;;;8.82;3.88;;;13.70;99.90;;;13.84;100.00;100765.38;5188758;28;20492;-83
2022/09/25 06:04:52;;;;;;;7.45;3.25;;;13.70;99.90;;;13.84;100.00;100771.47;5189822;28;20049;-82
2022/09/25 06:07:24;;;;;;;9.02;3.90;;;13.70;99.90;;;13.85;100.00;100775.00;5191428;28;20057;-83
2022/09/25 06:09:57;;;;;;;10.93;3.50;;;13.70;99.90;;;13.85;100.00;100770.63;5191550;28;20053;-83
2022/09/25 06:12:30;;;;;;;8.10;3.60;;;13.70;99.90;;;13.85;100.00;100768.00;5193033;28;20053;-83
2022/09/25 06:15:02;;;;;;;6.78;3.60;;;13.80;99.90;;;13.84;100.00;100768.88;5190979;28;20467;-83
2022/09/25 06:17:34;;;;;;;7.50;3.53;;;13.70;99.90;;;13.87;100.00;100770.66;5254733;23;20417;-56
2022/09/25 06:20:07;;;;;;;8.23;3.30;;;13.80;99.90;;;13.88;100.00;100772.41;5195649;28;20373;-56
2022/09/25 06:22:40;;;;;;;7.88;3.38;;;13.80;99.90;;;13.89;100.00;100762.81;5166883;28;20166;-56
2022/09/25 06:25:14;;;;;;;6.30;3.42;;;13.80;99.90;;;13.90;100.00;100773.34;5166795;28;20062;-56
2022/09/25 06:27:46;;;;;;;7.38;3.20;;;13.80;99.90;;;13.92;100.00;100768.13;5166515;28;20442;-56
2022/09/25 06:30:18;;;;;;;6.50;3.35;;;13.80;99.90;;;13.93;100.00;100773.41;5166529;28;20058;-56
2022/09/25 06:32:57;;;;;;;6.20;3.40;;;13.80;99.90;;;13.93;100.00;100780.38;5166445;28;20443;-56
2022/09/25 06:35:30;;;;;;;6.53;3.20;;;13.80;99.90;;;13.93;100.00;100786.50;5166619;28;20053;-56
2022/09/25 06:38:04;;;;;;;6.22;3.30;;;13.90;99.90;;;13.93;100.00;100788.25;5166388;28;20060;-56
2022/09/25 06:40:39;;;;;;;;;;;13.80;99.90;;;13.90;100.00;100790.81;5166447;28;20426;-56
2022/09/25 06:43:14;;;;;;;5.85;2.63;;;13.80;99.90;;;13.90;100.00;100785.56;5166123;28;19945;-56
2022/09/25 06:45:46;;;;;;;4.70;2.75;;;13.80;99.90;;;13.90;100.00;100785.56;5166202;28;20046;-56
2022/09/25 06:48:20;;;;;;;6.88;2.75;;;13.80;99.90;;;13.87;100.00;100789.00;5166034;28;20511;-56
2022/09/25 06:50:55;;;;;;;3.92;2.53;;;13.80;99.90;;;13.88;100.00;100796.00;5164595;28;20054;-56
2022/09/25 06:53:27;;;;;;;5.25;1.92;;;13.80;99.90;;;13.90;100.00;100793.44;5165942;28;20061;-56
2022/09/25 06:56:01;;;;;;;5.68;1.98;;;13.80;99.90;;;13.90;100.00;100796.06;5166020;28;20047;-56
2022/09/25 06:58:34;;;;;;;4.05;2.20;;;13.80;99.90;;;13.91;100.00;100797.81;5165571;28;20090;-56
2022/09/25 07:01:09;;;;;;;4.45;1.90;;;13.80;99.90;;;13.95;100.00;100805.75;5180979;28;20104;-56
2022/09/25 07:03:43;;;;;;;4.68;2.30;;;13.80;99.90;;;13.99;100.00;100806.72;5165863;28;20057;-56
2022/09/25 07:06:18;;;;;;;5.32;2.10;;;13.90;99.90;;;14.02;100.00;100804.19;5165895;28;20046;-56
2022/09/25 07:08:51;;;;;;;5.05;1.77;;;13.90;99.90;;;13.98;100.00;100807.56;5165545;28;20133;-56
2022/09/25 07:11:27;;;;;;;4.28;1.88;;;13.90;99.90;;;13.97;100.00;100808.44;5165575;28;20410;-56
2022/09/25 07:14:00;;;;;;;3.90;2.10;;;13.90;99.90;;;13.97;100.00;100813.69;5165638;28;20093;-56
2022/09/25 07:16:33;;;;;;;6.18;2.42;;;13.90;99.90;;;13.96;100.00;100811.91;5165509;28;20065;-56
2022/09/25 07:19:06;;;;;;;4.63;2.00;;;13.90;99.90;;;13.95;100.00;100813.63;5165403;28;20047;-56
2022/09/25 07:21:38;;;;;;;4.85;1.85;;;13.90;99.90;;;13.96;100.00;100814.53;5165609;28;20078;-56
2022/09/25 07:24:10;;;;;;;3.20;1.83;;;13.90;99.90;;;13.97;100.00;100813.69;5165561;28;20442;-56
2022/09/25 07:26:43;;;;;;;6.18;1.70;;;13.90;99.90;;;13.94;100.00;100814.47;5165316;28;20423;-56
2022/09/25 07:29:16;;;;;;;4.38;1.73;;;13.90;99.90;;;13.98;100.00;100818.94;5164338;28;20045;-56
2022/09/25 07:31:48;;;;;;;4.60;1.30;;;13.90;99.90;;;14.03;100.00;100819.06;5165266;28;20046;-56
2022/09/25 07:34:20;;;;;;;4.15;1.30;;;13.90;99.90;;;14.06;100.00;100829.59;5165270;28;20061;-56
2022/09/25 07:36:54;;;;;;;3.90;1.45;;;14.00;99.90;;;14.11;100.00;100815.72;5165272;28;20050;-56
2022/09/25 07:39:26;;;;;;;4.00;1.55;;;14.00;99.90;;;14.18;100.00;100813.22;5164898;28;20159;-56
2022/09/25 07:41:59;;;;;;;6.13;1.50;;;14.00;99.90;;;14.22;100.00;100815.97;5165102;28;20441;-56
2022/09/25 07:44:31;;;;;;;3.15;1.40;;;14.00;99.90;;;14.25;100.00;100818.63;5165094;28;20042;-56
2022/09/25 07:47:04;;;;;;;9.65;1.50;;;14.10;99.90;;;14.25;100.00;100826.50;5165315;28;20054;-57
2022/09/25 07:49:36;;;;;;;2.70;1.58;;;14.10;99.90;;;14.23;100.00;100817.72;5164521;28;20042;-56
2022/09/25 07:52:08;;;;;;;2.95;1.42;;;14.10;99.90;;;14.27;100.00;100819.53;5164848;28;20053;-57
2022/09/25 07:54:41;;;;;;;5.32;1.60;;;14.10;99.90;;;14.31;100.00;100821.38;5164924;28;20046;-56
2022/09/25 07:57:19;;;;;;;4.22;1.85;;;14.20;99.90;;;14.49;100.00;100830.50;5164884;28;20048;-58
2022/09/25 07:59:51;;;;;;;5.63;2.22;;;14.30;99.90;;;14.73;100.00;100822.19;5164390;28;20052;-57
2022/09/25 08:02:23;;;;;;;5.65;2.08;;;14.50;99.90;;;14.99;100.00;100827.91;5164810;28;20050;-58
2022/09/25 08:04:55;;;;;;;4.78;1.75;;;14.70;99.90;;;15.18;100.00;100832.59;5164847;28;20388;-58
2022/09/25 08:07:28;;;;;;;5.10;2.00;;;14.90;99.90;;;15.37;100.00;100831.16;5164960;28;20054;-58
2022/09/25 08:10:02;;;;;;;5.38;1.85;;;15.10;99.90;;;15.57;100.00;100826.22;5164203;28;20409;-58
2022/09/25 08:12:36;;;;;;;4.18;1.90;;;15.30;99.90;;;15.74;100.00;100832.66;5164453;28;20042;-57
2022/09/25 08:15:09;;;;;;;6.20;1.70;;;15.50;99.90;;;15.82;100.00;100836.25;5164423;28;20458;-56
2022/09/25 08:17:42;;;;;;;6.35;1.83;;;15.60;99.90;;;15.73;100.00;100836.16;5164369;28;20054;-56
2022/09/25 08:20:14;;;;;;;5.05;2.00;;;15.50;99.90;;;15.64;100.00;100836.00;5164273;28;20050;-56
2022/09/25 08:22:48;;;;;;;3.83;1.50;;;15.50;99.90;;;15.53;100.00;100848.94;5164275;28;20378;-56
2022/09/25 08:25:20;;;;;;;4.60;1.60;;;15.40;99.90;;;15.44;100.00;100844.41;5164288;28;20403;-56
2022/09/25 08:27:54;;;;;;;4.57;1.20;;;15.30;99.90;;;15.33;100.00;100840.75;5164194;28;20050;-56
2022/09/25 08:30:26;;;;;;;6.35;1.63;;;15.10;99.90;;;15.27;100.00;100845.03;5163913;28;20042;-56
2022/09/25 08:32:58;;;;;;;6.57;1.50;;;15.10;99.90;;;15.26;100.00;100848.47;5164092;28;20458;-56
2022/09/25 08:35:30;;;;;;;3.70;1.17;;;15.00;99.90;;;15.33;100.00;100846.00;5164060;28;20056;-56
2022/09/25 08:38:03;;;;;;;5.97;2.17;;;15.10;99.90;;;15.37;100.00;100847.81;5164114;28;20499;-56
2022/09/25 08:40:44;;;;;;;7.47;1.85;;;15.10;99.90;;;15.37;100.00;100849.56;5162783;28;20081;-56
2022/09/25 08:43:22;;;;;;;3.95;1.33;;;15.10;99.90;;;15.38;100.00;100849.56;5164029;28;20069;-56
2022/09/25 08:49:02;;;;;;;5.32;1.73;;;15.10;99.90;;;15.66;100.00;100856.19;5163563;28;20823;-56
2022/09/25 08:51:39;;;;;;;6.97;1.52;;;15.30;99.90;;;15.78;100.00;100850.25;5163925;28;20499;-56
2022/09/25 08:54:23;;;;;;;5.47;1.45;;;15.40;99.90;;;15.85;100.00;100857.34;5163672;28;20046;-56
2022/09/25 08:57:00;;;;;;;5.78;1.48;;;15.50;99.90;;;15.87;100.00;100854.75;5163833;28;20077;-56
2022/09/25 08:59:37;;;;;;;2.72;1.30;;;15.50;99.90;;;15.92;100.00;100853.94;5163862;28;20050;-56
2022/09/25 09:02:14;;;;;;;5.25;1.42;;;15.60;99.90;;;16.02;100.00;100855.81;5163711;28;20050;-56
2022/09/25 09:04:51;;;;;;;8.05;2.35;;;15.60;99.90;;;16.25;100.00;100850.00;5163600;28;20039;-56
2022/09/25 09:07:26;;;;;;;5.97;1.33;;;15.80;99.90;;;16.50;100.00;100854.69;5163663;28;20046;-56
2022/09/25 09:10:07;;;;;;;5.93;1.52;;;16.00;99.90;;;16.63;100.00;100855.72;5163097;28;20042;-56
2022/09/25 09:12:43;;;;;;;4.78;1.58;;;16.20;99.90;;;16.79;100.00;100851.53;5164325;28;20049;-56
2022/09/25 09:15:37;;;;;;;4.47;1.33;;;16.30;99.90;;;16.95;100.00;100848.19;5163486;28;20065;-56
2022/09/25 09:18:21;;;;;;;4.88;1.30;;;16.50;99.90;;;17.19;100.00;100847.50;5163476;28;20049;-56
2022/09/25 09:20:55;;;;;;;6.32;1.67;;;16.60;99.90;;;17.48;100.00;100847.75;5163218;28;20120;-56
2022/09/25 09:23:33;;;;;;;7.03;1.45;;;16.90;99.90;;;17.77;100.00;100852.38;5163226;28;20137;-56
2022/09/25 09:26:13;;;;;;;2.28;1.25;;;17.10;99.90;;;17.88;100.00;100845.41;5163559;28;20130;-56
2022/09/25 09:29:09;;;;;;;5.80;1.50;;;17.30;99.90;;;17.86;100.00;100849.78;5163302;28;20611;-56
2022/09/25 09:31:55;;;;;;;2.95;1.30;;;17.30;99.90;;;17.72;100.00;100849.69;5163348;28;20046;-60
2022/09/25 09:34:51;;;;;;;4.75;1.38;;;17.30;99.90;;;17.81;100.00;100854.16;5163463;28;20046;-59
2022/09/25 09:37:32;;;;;;;6.28;1.48;;;17.40;99.90;;;17.86;100.00;100853.28;5163448;28;20046;-61
2022/09/25 09:40:22;;;;;;;3.80;1.27;;;17.50;99.90;;;17.86;100.00;100847.13;5162848;28;20503;-59
2022/09/25 09:43:08;;;;;;;5.07;1.33;;;17.50;99.90;;;17.75;100.00;100851.47;5163442;28;20045;-60
2022/09/25 09:45:49;;;;;;;3.83;1.73;;;17.50;99.90;;;17.71;100.00;100852.28;5163360;28;20050;-60
2022/09/25 09:48:30;;;;;;;3.33;1.30;;;17.50;99.90;;;17.80;100.00;100844.47;5163090;28;20046;-59
2022/09/25 09:51:10;;;;;;;3.83;0.93;;;17.50;99.90;;;17.81;99.04;100848.88;5163179;28;20427;-58
2022/09/25 09:53:49;;;;;;;4.50;1.10;;;17.50;99.90;;;17.80;97.83;100847.09;5165322;28;20141;-59
2022/09/25 09:56:25;;;;;;;2.67;0.73;;;17.50;99.90;;;17.79;97.24;100851.50;5166823;28;20049;-57
2022/09/25 09:59:02;;;;;;;3.47;0.98;;;17.50;99.90;;;17.74;96.04;100844.44;5166872;28;20046;-56
2022/09/25 10:01:37;;;;;;;2.83;0.95;;;17.40;99.90;;;17.75;95.27;100838.31;5167132;28;20073;-59
2022/09/25 10:04:16;;;;;;;5.40;0.98;;;17.40;99.90;;;17.80;94.76;100834.81;5167228;28;20430;-58
2022/09/25 10:06:54;;;;;;;5.53;1.42;;;17.40;99.90;;;18.00;94.34;100834.06;5167104;28;20046;-60
2022/09/25 10:09:28;;;;;;;4.30;0.80;;;17.50;99.90;;;18.15;93.13;100824.44;5165690;28;20529;-60
2022/09/25 10:12:06;;;;;;;2.92;0.90;;;17.60;99.90;;;18.27;92.19;100823.63;5167116;28;20075;-60
2022/09/25 10:14:43;;;;;;;3.88;1.10;;;17.80;99.60;;;18.38;91.94;100821.00;5167029;28;20462;-59
2022/09/25 10:17:16;;;;;;;2.58;1.10;;;17.90;99.50;;;18.43;93.35;100832.47;5167096;28;20042;-61
2022/09/25 10:19:55;;;;;;;2.60;1.23;;;18.00;99.70;;;18.53;93.15;100822.81;5166734;28;20050;-59
2022/09/25 10:22:32;;;;;;;2.53;1.00;;;18.10;99.60;;;18.60;92.29;100828.13;5165806;28;20420;-58
2022/09/25 10:25:05;;;;;;;4.35;1.00;;;18.20;99.20;;;18.65;91.59;100822.88;5166947;28;20050;-60
2022/09/25 10:27:40;;;;;;;4.35;0.93;;;18.30;98.90;;;18.70;91.09;100824.63;5166839;28;20038;-61
2022/09/25 10:30:19;;;;;;;5.13;0.90;;;18.30;98.60;;;18.77;89.55;100822.88;5165976;28;20046;-65
2022/09/25 10:33:00;;;;;;;2.92;0.77;;;18.40;98.10;;;18.75;87.59;100818.50;5167040;28;20122;-57
2022/09/25 10:35:45;;;;;;;3.13;0.85;;;18.40;97.50;;;18.67;87.65;100818.50;5166692;28;20046;-58
2022/09/25 10:38:30;;;;;;;1.70;0.60;;;18.30;97.40;;;18.65;88.92;100815.81;5166455;28;20511;-57
2022/09/25 10:41:07;;;;;;;2.13;0.70;;;18.30;97.70;;;18.61;87.38;100819.31;5166378;28;20515;-59
2022/09/25 10:43:53;;;;;;;2.22;0.70;;;18.30;97.40;;;18.55;86.14;100810.50;5166568;28;20050;-58
2022/09/25 10:52:16;;;;;;;1.75;0.60;;;18.20;96.50;;;18.43;84.22;100811.34;5166353;28;20051;-63
2022/09/25 10:54:50;;;;;;;2.85;1.30;;;18.10;96.10;;;18.40;84.82;100808.72;5164657;28;20077;-61